createdAt,value
2023-02-16T00:02:10.773Z,26.88
2023-02-16T00:04:38.318Z,23.08
2023-02-16T00:07:06.301Z,22.95
2023-02-16T00:09:34.890Z,21.67
2023-02-16T00:12:02.357Z,24.17
2023-02-16T00:14:29.960Z,22.73
2023-02-16T00:16:59.705Z,22.20
2023-02-16T00:19:28.943Z,20.52
2023-02-16T00:21:57.671Z,22.90
2023-02-16T00:24:26.792Z,20.63
2023-02-16T00:26:57.330Z,18.23
2023-02-16T00:29:28.423Z,18.25
2023-02-16T00:31:57.091Z,17.42
2023-02-16T00:34:30.825Z,19.15
2023-02-16T00:37:00.101Z,18.00
2023-02-16T00:39:28.803Z,18.58
2023-02-16T00:42:00.379Z,20.15
2023-02-16T00:44:33.847Z,19.48
2023-02-16T00:47:03.621Z,17.88
2023-02-16T00:49:31.480Z,15.93
2023-02-16T00:51:59.136Z,18.50
2023-02-16T00:54:26.741Z,18.13
2023-02-16T00:57:04.846Z,17.85
2023-02-16T00:59:37.046Z,18.15
2023-02-16T01:02:07.836Z,17.33
2023-02-16T01:04:42.184Z,19.45
2023-02-16T01:07:15.069Z,19.08
2023-02-16T01:09:44.065Z,18.13
2023-02-16T01:12:21.750Z,17.52
2023-02-16T01:14:58.854Z,17.67
2023-02-16T01:17:31.003Z,16.17
2023-02-16T01:20:03.710Z,18.27
2023-02-16T01:22:35.466Z,18.05
2023-02-16T01:27:41.062Z,17.38
2023-02-16T01:30:14.590Z,17.35
2023-02-16T01:32:42.233Z,17.27
2023-02-16T01:35:10.685Z,16.98
2023-02-16T01:37:38.105Z,16.58
2023-02-16T01:40:06.962Z,16.75
2023-02-16T01:42:43.657Z,15.63
2023-02-16T01:45:17.439Z,17.25
2023-02-16T01:47:50.026Z,17.02
2023-02-16T01:50:19.279Z,17.95
2023-02-16T01:52:54.671Z,20.42
2023-02-16T01:55:25.248Z,19.83
2023-02-16T01:57:59.391Z,18.67
2023-02-16T02:00:29.175Z,19.50
2023-02-16T02:02:59.531Z,20.70
2023-02-16T02:05:28.936Z,20.67
2023-02-16T02:08:01.542Z,21.23
2023-02-16T02:10:35.141Z,18.73
2023-02-16T02:13:09.141Z,19.45
2023-02-16T02:15:38.914Z,19.75
2023-02-16T02:18:06.851Z,23.33
2023-02-16T02:20:49.757Z,24.77
2023-02-16T02:23:49.688Z,20.88
2023-02-16T02:27:04.947Z,23.27
2023-02-16T02:29:48.397Z,21.27
2023-02-16T02:32:26.529Z,21.05
2023-02-16T02:35:16.532Z,22.02
2023-02-16T02:37:56.471Z,21.97
2023-02-16T02:40:34.927Z,21.40
2023-02-16T02:43:14.144Z,19.50
2023-02-16T02:45:47.100Z,21.27
2023-02-16T02:50:47.891Z,18.70
2023-02-16T02:53:16.352Z,17.80
2023-02-16T02:55:46.934Z,19.60
2023-02-16T02:58:17.522Z,20.30
2023-02-16T03:00:45.956Z,19.42
2023-02-16T03:03:18.696Z,19.70
2023-02-16T03:05:50.286Z,21.83
2023-02-16T03:08:22.382Z,22.45
2023-02-16T03:10:54.189Z,20.55
2023-02-16T03:15:56.029Z,18.83
2023-02-16T03:18:25.715Z,19.77
2023-02-16T03:20:53.203Z,20.45
2023-02-16T03:23:20.432Z,20.92
2023-02-16T03:25:48.199Z,19.45
2023-02-16T03:28:19.748Z,19.92
2023-02-16T03:30:50.622Z,21.95
2023-02-16T03:33:18.740Z,20.95
2023-02-16T03:35:46.452Z,22.13
2023-02-16T03:38:13.800Z,20.95
2023-02-16T03:40:43.705Z,21.08
2023-02-16T03:43:10.898Z,21.48
2023-02-16T03:45:41.092Z,22.48
2023-02-16T03:48:11.744Z,20.38
2023-02-16T03:50:38.962Z,19.50
2023-02-16T03:53:06.215Z,18.90
2023-02-16T03:55:34.479Z,21.75
2023-02-16T03:58:02.018Z,20.85
2023-02-16T04:00:30.106Z,21.55
2023-02-16T04:02:57.308Z,20.13
2023-02-16T04:05:26.234Z,20.05
2023-02-16T04:07:53.409Z,21.58
2023-02-16T04:10:20.962Z,20.02
2023-02-16T04:12:48.150Z,18.65
2023-02-16T04:15:17.650Z,19.90
2023-02-16T04:17:45.066Z,21.27
2023-02-16T04:20:14.871Z,19.58
2023-02-16T04:22:43.752Z,19.05
2023-02-16T04:25:11.502Z,19.77
2023-02-16T04:27:39.750Z,19.80
2023-02-16T04:30:10.574Z,18.15
2023-02-16T04:32:37.851Z,21.30
2023-02-16T04:35:05.762Z,20.10
2023-02-16T04:37:33.010Z,20.30
2023-02-16T04:40:01.982Z,20.58
2023-02-16T04:42:29.203Z,20.42
2023-02-16T04:44:56.390Z,18.27
2023-02-16T04:47:23.810Z,21.40
2023-02-16T04:49:51.161Z,19.90
2023-02-16T04:52:19.033Z,18.77
2023-02-16T04:54:46.270Z,18.30
2023-02-16T04:57:15.614Z,20.02
2023-02-16T04:59:43.199Z,18.80
2023-02-16T05:02:10.617Z,17.65
2023-02-16T05:04:37.998Z,20.23
2023-02-16T05:07:05.202Z,18.60
2023-02-16T05:09:32.358Z,18.02
2023-02-16T05:11:59.571Z,19.90
2023-02-16T05:14:30.417Z,18.95
2023-02-16T05:16:57.601Z,19.23
2023-02-16T05:19:24.764Z,20.88
2023-02-16T05:21:51.921Z,19.42
2023-02-16T05:24:19.378Z,18.83
2023-02-16T05:26:46.682Z,17.83
2023-02-16T05:29:13.832Z,19.90
2023-02-16T05:31:42.589Z,19.15
2023-02-16T05:34:09.885Z,18.40
2023-02-16T05:36:37.103Z,19.60
2023-02-16T05:39:04.986Z,18.75
2023-02-16T05:41:32.196Z,18.98
2023-02-16T05:44:01.197Z,18.20
2023-02-16T05:46:30.304Z,18.33
2023-02-16T05:48:59.269Z,17.00
2023-02-16T05:51:26.608Z,19.67
2023-02-16T05:53:54.005Z,16.90
2023-02-16T05:56:21.571Z,18.55
2023-02-16T05:58:49.243Z,18.30
2023-02-16T06:01:17.120Z,18.08
2023-02-16T06:03:44.517Z,17.95
2023-02-16T06:06:13.388Z,18.75
2023-02-16T06:08:40.802Z,19.90
2023-02-16T06:11:08.130Z,18.73
2023-02-16T06:13:35.348Z,18.63
2023-02-16T06:16:02.691Z,18.75
2023-02-16T06:18:29.899Z,20.10
2023-02-16T06:20:57.262Z,20.55
2023-02-16T06:23:25.733Z,19.80
2023-02-16T06:25:52.881Z,22.80
2023-02-16T06:28:20.036Z,20.42
2023-02-16T06:30:47.197Z,21.08
2023-02-16T06:33:14.397Z,22.48
2023-02-16T06:35:41.556Z,25.35
2023-02-16T06:38:08.838Z,21.20
2023-02-16T06:40:37.336Z,20.50
2023-02-16T06:43:04.488Z,19.77
2023-02-16T06:45:31.657Z,19.83
2023-02-16T06:47:58.798Z,19.92
2023-02-16T06:50:25.997Z,20.05
2023-02-16T06:52:53.172Z,19.27
2023-02-16T06:55:20.479Z,21.25
2023-02-16T06:57:48.981Z,18.10
2023-02-16T07:00:17.054Z,18.48
2023-02-16T07:02:44.214Z,18.50
2023-02-16T07:05:11.409Z,17.50
2023-02-16T07:07:38.622Z,17.42
2023-02-16T07:10:08.049Z,17.25
2023-02-16T07:12:35.294Z,18.95
2023-02-16T07:15:04.452Z,17.75
2023-02-16T07:17:31.707Z,19.42
2023-02-16T07:20:00.090Z,18.35
2023-02-16T07:22:27.494Z,17.52
2023-02-16T07:24:54.637Z,17.80
2023-02-16T07:27:21.786Z,17.70
2023-02-16T07:29:48.917Z,17.63
2023-02-16T07:32:17.483Z,18.08
2023-02-16T07:34:44.718Z,17.98
2023-02-16T07:37:11.976Z,17.25
2023-02-16T07:39:39.096Z,20.75
2023-02-16T07:42:06.262Z,21.00
2023-02-16T07:44:34.409Z,18.35
2023-02-16T07:47:01.564Z,17.67
2023-02-16T07:49:30.091Z,18.27
2023-02-16T07:51:57.293Z,16.52
2023-02-16T07:54:24.482Z,17.20
2023-02-16T07:56:51.659Z,17.30
2023-02-16T07:59:18.839Z,18.35
2023-02-16T08:01:45.996Z,18.15
2023-02-16T08:04:13.226Z,16.52
2023-02-16T08:06:41.802Z,18.10
2023-02-16T08:09:08.966Z,17.13
2023-02-16T08:11:36.135Z,17.88
2023-02-16T08:14:03.317Z,16.92
2023-02-16T08:16:31.666Z,17.17
2023-02-16T08:19:00.046Z,17.33
2023-02-16T08:21:28.926Z,17.00
2023-02-16T08:23:58.819Z,16.85
2023-02-16T08:26:27.672Z,17.70
2023-02-16T08:28:57.657Z,16.65
2023-02-16T08:31:26.955Z,16.83
2023-02-16T08:33:54.634Z,16.17
2023-02-16T08:36:24.948Z,16.50
2023-02-16T08:38:53.772Z,16.67
2023-02-16T08:41:24.205Z,17.85
2023-02-16T08:43:51.406Z,15.65
2023-02-16T08:46:18.693Z,15.85
2023-02-16T08:48:45.893Z,17.70
2023-02-16T08:51:17.131Z,17.92
2023-02-16T08:53:44.423Z,17.58
2023-02-16T08:56:11.617Z,17.13
2023-02-16T08:58:40.996Z,16.63
2023-02-16T09:01:09.220Z,17.73
2023-02-16T09:03:37.121Z,16.92
2023-02-16T09:06:06.114Z,18.15
2023-02-16T09:08:34.046Z,17.90
2023-02-16T09:11:02.398Z,17.48
2023-02-16T09:13:29.869Z,17.88
2023-02-16T09:16:03.872Z,18.00
2023-02-16T09:18:31.165Z,16.45
2023-02-16T09:21:02.823Z,16.27
2023-02-16T09:23:30.125Z,15.95
2023-02-16T09:25:59.869Z,17.05
2023-02-16T09:28:27.201Z,16.65
2023-02-16T09:30:54.540Z,16.70
2023-02-16T09:33:23.037Z,16.33
2023-02-16T09:35:50.219Z,15.85
2023-02-16T09:38:17.404Z,16.98
2023-02-16T09:40:44.992Z,17.13
2023-02-16T09:43:18.773Z,17.30
2023-02-16T09:45:50.587Z,17.55
2023-02-16T09:50:54.788Z,16.20
2023-02-16T09:53:32.178Z,15.98
2023-02-16T09:56:08.165Z,16.33
2023-02-16T09:58:42.136Z,15.25
2023-02-16T10:01:21.208Z,17.17
2023-02-16T10:03:58.978Z,17.00
2023-02-16T10:06:35.213Z,16.67
2023-02-16T10:09:07.616Z,16.60
2023-02-16T10:11:38.990Z,17.52
2023-02-16T10:14:13.277Z,18.05
2023-02-16T10:16:45.124Z,19.65
2023-02-16T10:19:20.157Z,18.05
2023-02-16T10:21:56.453Z,17.73
2023-02-16T10:24:26.118Z,19.13
2023-02-16T10:27:00.442Z,17.08
2023-02-16T10:29:27.691Z,19.75
2023-02-16T10:32:08.166Z,18.10
2023-02-16T10:34:47.484Z,17.73
2023-02-16T10:37:28.782Z,18.38
2023-02-16T10:40:13.951Z,17.70
2023-02-16T10:42:46.590Z,18.45
2023-02-16T10:45:22.789Z,18.20
2023-02-16T10:47:50.077Z,17.08
2023-02-16T10:50:24.702Z,18.58
2023-02-16T10:52:59.076Z,17.88
2023-02-16T10:55:26.455Z,18.33
2023-02-16T10:57:56.051Z,17.40
2023-02-16T11:00:29.786Z,17.83
2023-02-16T11:03:01.836Z,17.27
2023-02-16T11:05:35.933Z,17.38
2023-02-16T11:08:06.258Z,17.23
2023-02-16T11:10:40.349Z,18.80
2023-02-16T11:13:16.974Z,19.25
2023-02-16T11:15:52.078Z,17.38
2023-02-16T11:18:32.340Z,17.42
2023-02-16T11:20:59.536Z,18.00
2023-02-16T11:23:29.390Z,17.42
2023-02-16T11:26:00.057Z,18.05
2023-02-16T11:28:32.090Z,19.30
2023-02-16T11:31:05.138Z,18.23
2023-02-16T11:33:32.823Z,18.70
2023-02-16T11:36:00.443Z,18.10
2023-02-16T11:38:32.159Z,17.67
2023-02-16T11:41:02.133Z,17.05
2023-02-16T11:43:32.684Z,18.15
2023-02-16T11:46:02.865Z,17.60
2023-02-16T11:48:31.698Z,17.60
2023-02-16T11:51:01.037Z,18.25
2023-02-16T11:53:32.032Z,18.42
2023-02-16T11:56:27.914Z,17.95
2023-02-16T11:59:07.572Z,19.10
2023-02-16T12:01:54.081Z,18.45
2023-02-16T12:04:41.702Z,17.55
2023-02-16T12:07:20.562Z,16.80
2023-02-16T12:09:58.856Z,17.90
2023-02-16T12:12:33.625Z,19.52
2023-02-16T12:15:05.955Z,18.67
2023-02-16T12:17:50.701Z,18.27
2023-02-16T12:20:33.015Z,19.15
2023-02-16T12:23:14.146Z,18.88
2023-02-16T12:25:54.802Z,19.50
2023-02-16T12:28:32.517Z,19.38
2023-02-16T12:31:08.612Z,18.38
2023-02-16T12:33:43.657Z,17.73
2023-02-16T12:36:31.534Z,18.85
2023-02-16T12:39:10.335Z,18.52
2023-02-16T12:41:50.320Z,18.90
2023-02-16T12:44:24.994Z,18.80
2023-02-16T12:47:00.178Z,19.10
2023-02-16T12:49:35.773Z,18.77
2023-02-16T12:52:09.933Z,18.08
2023-02-16T12:54:43.206Z,18.80
2023-02-16T12:57:14.917Z,17.95
2023-02-16T12:59:46.586Z,19.20
2023-02-16T13:02:19.761Z,19.75
2023-02-16T13:04:54.462Z,18.73
2023-02-16T13:07:29.353Z,18.67
2023-02-16T13:10:02.017Z,18.17
2023-02-16T13:12:36.165Z,17.95
2023-02-16T13:15:10.713Z,17.75
2023-02-16T13:17:43.128Z,18.60
2023-02-16T13:20:15.332Z,19.33
2023-02-16T13:22:56.930Z,18.75
2023-02-16T13:25:42.566Z,19.10
2023-02-16T13:28:31.761Z,18.55
2023-02-16T13:31:14.010Z,18.20
2023-02-16T13:33:55.900Z,18.02
2023-02-16T13:36:43.014Z,19.00
2023-02-16T13:39:25.845Z,19.80
2023-02-16T13:42:16.209Z,20.10
2023-02-16T13:44:48.907Z,19.58
2023-02-16T13:47:20.202Z,19.67
2023-02-16T13:49:47.712Z,19.40
2023-02-16T13:52:30.188Z,18.65
2023-02-16T13:54:59.059Z,19.40
2023-02-16T13:58:02.273Z,19.73
2023-02-16T14:00:34.799Z,19.55
2023-02-16T14:03:05.955Z,19.80
2023-02-16T14:05:39.074Z,19.20
2023-02-16T14:08:28.922Z,19.00
2023-02-16T14:11:05.413Z,19.73
2023-02-16T14:13:43.492Z,18.65
2023-02-16T14:16:24.719Z,20.73
2023-02-16T14:18:57.697Z,18.90
2023-02-16T14:21:31.713Z,19.10
2023-02-16T14:24:00.937Z,20.83
2023-02-16T14:26:28.193Z,18.75
2023-02-16T14:29:12.500Z,20.77
2023-02-16T14:31:47.065Z,20.70
2023-02-16T14:34:21.378Z,21.83
2023-02-16T14:37:25.631Z,20.15
2023-02-16T14:40:07.500Z,20.15
2023-02-16T14:42:36.132Z,21.75
2023-02-16T14:45:25.709Z,20.80
2023-02-16T14:48:06.959Z,20.65
2023-02-16T14:50:47.558Z,19.45
2023-02-16T14:53:42.871Z,20.05
2023-02-16T14:56:25.838Z,19.52
2023-02-16T14:58:59.291Z,20.85
2023-02-16T15:01:26.533Z,21.42
2023-02-16T15:03:56.509Z,22.55
2023-02-16T15:06:32.140Z,22.75
2023-02-16T15:09:02.308Z,22.02
2023-02-16T15:11:32.779Z,23.38
2023-02-16T15:14:08.129Z,23.20
2023-02-16T15:16:39.511Z,23.15
2023-02-16T15:19:15.289Z,22.80
2023-02-16T15:21:42.431Z,21.85
2023-02-16T15:24:21.838Z,22.80
2023-02-16T15:26:54.665Z,22.27
2023-02-16T15:29:24.572Z,22.65
2023-02-16T15:31:52.829Z,22.55
2023-02-16T15:34:29.951Z,23.27
2023-02-16T15:36:57.128Z,23.17
2023-02-16T15:39:42.720Z,23.30
2023-02-16T15:42:21.877Z,22.65
2023-02-16T15:44:49.886Z,23.38
2023-02-16T15:47:21.712Z,21.25
2023-02-16T15:52:20.745Z,23.15
2023-02-16T15:54:49.664Z,22.45
2023-02-16T15:57:21.386Z,23.33
2023-02-16T15:59:51.137Z,22.13
2023-02-16T16:02:20.162Z,23.35
2023-02-16T16:04:53.332Z,23.52
2023-02-16T16:07:26.871Z,23.50
2023-02-16T16:09:56.149Z,22.90
2023-02-16T16:12:24.651Z,23.98
2023-02-16T16:14:54.890Z,24.27
2023-02-16T16:17:25.385Z,23.35
2023-02-16T16:19:54.568Z,21.85
2023-02-16T16:22:32.935Z,22.85
2023-02-16T16:25:00.696Z,21.88
2023-02-16T16:27:31.281Z,20.95
2023-02-16T16:30:24.753Z,21.75
2023-02-16T16:32:59.320Z,22.65
2023-02-16T16:35:36.791Z,21.85
2023-02-16T16:38:04.835Z,22.67
2023-02-16T16:40:34.739Z,23.50
2023-02-16T16:43:17.846Z,23.33
2023-02-16T16:45:47.739Z,22.63
2023-02-16T16:48:18.725Z,22.23
2023-02-16T16:50:48.323Z,23.45
2023-02-16T16:53:51.407Z,25.25
2023-02-16T16:56:19.801Z,22.23
2023-02-16T16:58:48.619Z,22.50
2023-02-16T17:01:15.786Z,23.55
2023-02-16T17:03:43.370Z,24.90
2023-02-16T17:06:12.415Z,23.83
2023-02-16T17:08:39.676Z,22.42
2023-02-16T17:11:08.063Z,24.80
2023-02-16T17:13:35.474Z,23.60
2023-02-16T17:16:06.783Z,25.35
2023-02-16T17:18:34.105Z,23.80
2023-02-16T17:21:01.377Z,24.30
2023-02-16T17:23:29.899Z,23.02
2023-02-16T17:25:57.249Z,22.92
2023-02-16T17:28:24.398Z,23.52
2023-02-16T17:30:51.550Z,23.20
2023-02-16T17:33:18.686Z,22.77
2023-02-16T17:35:45.962Z,23.25
2023-02-16T17:38:17.803Z,22.60
2023-02-16T17:43:16.338Z,20.42
2023-02-16T17:45:44.590Z,21.45
2023-02-16T17:48:15.817Z,20.65
2023-02-16T17:50:43.082Z,20.40
2023-02-16T17:53:12.899Z,21.67
2023-02-16T17:55:40.171Z,23.10
2023-02-16T17:58:10.009Z,22.08
2023-02-16T18:00:37.685Z,20.20
2023-02-16T18:03:04.905Z,20.10
2023-02-16T18:05:32.162Z,21.50
2023-02-16T18:07:59.874Z,20.75
2023-02-16T18:10:33.915Z,20.98
2023-02-16T18:13:01.356Z,19.98
2023-02-16T18:15:30.210Z,20.20
2023-02-16T18:17:57.915Z,19.48
2023-02-16T18:20:25.994Z,20.38
2023-02-16T18:22:53.803Z,17.88
2023-02-16T18:25:21.320Z,20.48
2023-02-16T18:27:48.555Z,19.50
2023-02-16T18:30:16.819Z,19.10
2023-02-16T18:32:45.432Z,20.17
2023-02-16T18:35:13.294Z,19.38
2023-02-16T18:37:41.068Z,21.40
2023-02-16T18:40:10.541Z,18.98
2023-02-16T18:42:38.374Z,20.85
2023-02-16T18:45:06.552Z,19.65
2023-02-16T18:47:33.733Z,20.25
2023-02-16T18:50:02.818Z,21.80
2023-02-16T18:52:30.019Z,18.83
2023-02-16T18:54:57.369Z,18.27
2023-02-16T18:57:24.577Z,18.80
2023-02-16T18:59:51.762Z,19.23
2023-02-16T19:02:18.935Z,18.27
2023-02-16T19:04:46.159Z,18.50
2023-02-16T19:07:14.741Z,19.13
2023-02-16T19:09:41.894Z,19.13
2023-02-16T19:12:09.079Z,18.60
2023-02-16T19:14:36.316Z,20.58
2023-02-16T19:17:03.935Z,20.05
2023-02-16T19:19:31.393Z,20.23
2023-02-16T19:21:58.627Z,19.65
2023-02-16T19:24:27.236Z,29.17
2023-02-16T19:26:54.524Z,18.83
2023-02-16T19:29:21.690Z,18.88
2023-02-16T19:31:49.042Z,20.55
2023-02-16T19:34:16.301Z,20.02
2023-02-16T19:36:43.686Z,19.00
2023-02-16T19:39:11.158Z,20.63
2023-02-16T19:41:42.164Z,21.50
2023-02-16T19:44:12.250Z,19.90
2023-02-16T19:46:41.049Z,20.10
2023-02-16T19:49:11.342Z,19.75
2023-02-16T19:51:38.530Z,20.48
2023-02-16T19:54:05.745Z,23.77
2023-02-16T19:56:32.996Z,22.00
2023-02-16T19:59:01.558Z,21.08
2023-02-16T20:01:28.928Z,21.42
2023-02-16T20:03:57.055Z,21.83
2023-02-16T20:06:26.447Z,22.77
2023-02-16T20:08:55.508Z,19.70
2023-02-16T20:11:25.918Z,21.35
2023-02-16T20:13:54.108Z,20.98
2023-02-16T20:16:23.600Z,20.27
2023-02-16T20:18:51.035Z,20.63
2023-02-16T20:21:20.315Z,21.52
2023-02-16T20:23:48.321Z,21.02
2023-02-16T20:26:17.592Z,21.15
2023-02-16T20:28:45.354Z,20.92
2023-02-16T20:31:13.432Z,21.13
2023-02-16T20:33:42.980Z,20.85
2023-02-16T20:36:11.280Z,21.25
2023-02-16T20:38:38.593Z,22.15
2023-02-16T20:41:05.890Z,20.02
2023-02-16T20:43:34.126Z,20.55
2023-02-16T20:46:01.837Z,21.95
2023-02-16T20:48:29.249Z,21.55
2023-02-16T20:51:00.716Z,21.58
2023-02-16T20:53:28.411Z,20.83
2023-02-16T20:56:01.117Z,19.80
2023-02-16T20:58:28.410Z,20.98
2023-02-16T21:00:56.061Z,22.10
2023-02-16T21:03:23.394Z,22.10
2023-02-16T21:05:50.608Z,22.67
2023-02-16T21:08:19.242Z,20.65
2023-02-16T21:10:46.657Z,21.17
2023-02-16T21:13:14.838Z,21.42
2023-02-16T21:15:42.006Z,20.55
2023-02-16T21:18:09.160Z,20.35
2023-02-16T21:20:36.392Z,20.25
2023-02-16T21:23:03.589Z,20.60
2023-02-16T21:25:32.114Z,21.02
2023-02-16T21:27:59.269Z,21.08
2023-02-16T21:30:26.486Z,21.02
2023-02-16T21:32:53.686Z,20.50
2023-02-16T21:35:20.942Z,20.52
2023-02-16T21:37:48.099Z,20.63
2023-02-16T21:40:15.292Z,20.48
2023-02-16T21:42:43.830Z,21.52
2023-02-16T21:45:11.049Z,20.63
2023-02-16T21:47:38.700Z,19.98
2023-02-16T21:50:06.955Z,19.10
2023-02-16T21:52:34.109Z,18.70
2023-02-16T21:55:01.243Z,19.98
2023-02-16T21:57:28.390Z,19.48
2023-02-16T21:59:56.895Z,20.33
2023-02-16T22:02:24.073Z,19.05
2023-02-16T22:04:51.433Z,19.30
2023-02-16T22:07:18.610Z,19.75
2023-02-16T22:09:45.770Z,19.15
2023-02-16T22:12:12.945Z,18.30
2023-02-16T22:14:40.114Z,18.52
2023-02-16T22:17:08.678Z,19.70
2023-02-16T22:19:35.878Z,18.65
2023-02-16T22:22:03.041Z,20.05
2023-02-16T22:24:30.237Z,18.85
2023-02-16T22:26:57.454Z,19.60
2023-02-16T22:29:24.589Z,18.00
2023-02-16T22:31:51.810Z,18.33
2023-02-16T22:34:21.717Z,18.73
2023-02-16T22:36:49.436Z,17.60
2023-02-16T22:39:18.100Z,19.30
2023-02-16T22:41:45.326Z,17.92
2023-02-16T22:44:12.552Z,18.92
2023-02-16T22:46:39.692Z,17.42
2023-02-16T22:49:06.996Z,17.95
2023-02-16T22:51:36.394Z,17.83
2023-02-16T22:54:04.240Z,19.17
2023-02-16T22:56:31.980Z,18.88
2023-02-16T22:58:59.745Z,18.65
2023-02-16T23:01:28.914Z,19.77
2023-02-16T23:03:58.608Z,21.90
2023-02-16T23:06:28.211Z,21.63
2023-02-16T23:08:58.636Z,20.92
2023-02-16T23:11:27.183Z,22.10
2023-02-16T23:13:54.451Z,21.15
2023-02-16T23:16:24.770Z,22.13
2023-02-16T23:18:52.128Z,22.10
2023-02-16T23:21:21.622Z,22.10
2023-02-16T23:23:50.205Z,22.05
2023-02-16T23:26:20.366Z,21.88
2023-02-16T23:28:51.210Z,21.60
2023-02-16T23:31:18.841Z,21.43
2023-02-16T23:33:46.124Z,21.08
2023-02-16T23:36:13.395Z,22.48
2023-02-16T23:38:40.738Z,21.50
2023-02-16T23:41:12.315Z,20.50
2023-02-16T23:43:41.442Z,21.10
2023-02-16T23:46:10.340Z,19.95
2023-02-16T23:48:37.952Z,21.67
2023-02-16T23:51:05.750Z,20.77
2023-02-16T23:53:33.795Z,20.95
2023-02-16T23:56:02.939Z,20.25
2023-02-16T23:58:32.536Z,21.83
